createdAt,value
2019-04-07T00:00:43.877Z,1009.38
2019-04-07T00:01:44.386Z,1009.35
2019-04-07T00:02:44.060Z,1009.31
2019-04-07T00:03:43.849Z,1009.29
2019-04-07T00:04:44.221Z,1009.28
2019-04-07T00:05:43.871Z,1009.30
2019-04-07T00:06:43.826Z,1009.29
2019-04-07T00:07:43.828Z,1009.32
2019-04-07T00:08:44.421Z,1009.31
2019-04-07T00:09:43.790Z,1009.33
2019-04-07T00:10:43.773Z,1009.29
2019-04-07T00:11:44.119Z,1009.30
2019-04-07T00:12:43.750Z,1009.25
2019-04-07T00:13:43.758Z,1009.26
2019-04-07T00:14:43.820Z,1009.29
2019-04-07T00:15:43.724Z,1009.25
2019-04-07T00:16:43.823Z,1009.31
2019-04-07T00:17:44.149Z,1009.23
2019-04-07T00:18:44.305Z,1009.19
2019-04-07T00:19:43.715Z,1009.23
2019-04-07T00:20:43.836Z,1009.24
2019-04-07T00:21:43.658Z,1009.17
2019-04-07T00:22:43.644Z,1009.21
2019-04-07T00:23:54.426Z,1009.20
2019-04-07T00:24:44.071Z,1009.16
2019-04-07T00:25:44.177Z,1009.15
2019-04-07T00:26:44.729Z,1009.14
2019-04-07T00:27:43.719Z,1009.17
2019-04-07T00:28:43.728Z,1009.13
2019-04-07T00:29:44.124Z,1009.16
2019-04-07T00:30:43.561Z,1009.15
2019-04-07T00:31:43.567Z,1009.12
2019-04-07T00:32:43.542Z,1009.08
2019-04-07T00:33:43.772Z,1009.09
2019-04-07T00:34:43.515Z,1009.07
2019-04-07T00:35:43.662Z,1009.06
2019-04-07T00:36:43.492Z,1009.07
2019-04-07T00:37:43.998Z,1009.04
2019-04-07T00:38:43.793Z,1009.05
2019-04-07T00:39:43.515Z,1009.03
2019-04-07T00:40:43.793Z,1009.04
2019-04-07T00:41:43.435Z,1009.01
2019-04-07T00:42:43.430Z,1009.00
2019-04-07T00:43:43.855Z,1009.02
2019-04-07T00:44:43.406Z,1008.97
2019-04-07T00:45:43.395Z,1009.00
2019-04-07T00:46:43.384Z,1009.00
2019-04-07T00:47:43.991Z,1009.05
2019-04-07T00:48:44.050Z,1009.02
2019-04-07T00:49:43.490Z,1009.02
2019-04-07T00:50:43.707Z,1008.99
2019-04-07T00:51:43.335Z,1008.97
2019-04-07T00:52:43.641Z,1008.97
2019-04-07T00:53:43.312Z,1009.02
2019-04-07T00:54:54.577Z,1008.99
2019-04-07T00:55:43.798Z,1009.00
2019-04-07T00:56:43.843Z,1008.97
2019-04-07T00:57:43.265Z,1008.98
2019-04-07T00:58:43.428Z,1008.94
2019-04-07T00:59:43.284Z,1008.92
2019-04-07T01:00:43.457Z,1008.93
2019-04-07T01:01:43.222Z,1008.97
2019-04-07T01:02:43.209Z,1008.93
2019-04-07T01:03:43.207Z,1008.91
2019-04-07T01:04:43.191Z,1008.91
2019-04-07T01:05:43.577Z,1008.91
2019-04-07T01:06:43.661Z,1008.84
2019-04-07T01:07:43.801Z,1008.89
2019-04-07T01:08:43.733Z,1008.85
2019-04-07T01:09:43.223Z,1008.85
2019-04-07T01:10:43.160Z,1008.84
2019-04-07T01:11:43.154Z,1008.81
2019-04-07T01:12:43.624Z,1008.81
2019-04-07T01:13:43.095Z,1008.82
2019-04-07T01:14:43.407Z,1008.79
2019-04-07T01:15:43.500Z,1008.76
2019-04-07T01:16:43.062Z,1008.73
2019-04-07T01:17:43.460Z,1008.71
2019-04-07T01:18:43.711Z,1008.73
2019-04-07T01:19:43.289Z,1008.77
2019-04-07T01:20:43.096Z,1008.70
2019-04-07T01:21:43.583Z,1008.72
2019-04-07T01:22:43.633Z,1008.69
2019-04-07T01:23:43.631Z,1008.69
2019-04-07T01:24:43.169Z,1008.64
2019-04-07T01:25:53.112Z,1008.67
2019-04-07T01:26:43.541Z,1008.68
2019-04-07T01:27:43.232Z,1008.65
2019-04-07T01:28:43.025Z,1008.64
2019-04-07T01:29:42.966Z,1008.61
2019-04-07T01:30:42.918Z,1008.60
2019-04-07T01:31:43.104Z,1008.62
2019-04-07T01:32:42.887Z,1008.59
2019-04-07T01:33:43.137Z,1008.56
2019-04-07T01:34:42.866Z,1008.58
2019-04-07T01:35:48.307Z,1008.55
2019-04-07T01:36:44.536Z,1008.54
2019-04-07T01:37:42.947Z,1008.53
2019-04-07T01:38:43.292Z,1008.52
2019-04-07T01:39:42.817Z,1008.49
2019-04-07T01:40:42.845Z,1008.53
2019-04-07T01:41:43.006Z,1008.53
2019-04-07T01:42:43.457Z,1008.54
2019-04-07T01:43:42.772Z,1008.53
2019-04-07T01:44:42.760Z,1008.48
2019-04-07T01:45:43.414Z,1008.49
2019-04-07T01:46:42.786Z,1008.49
2019-04-07T01:47:43.088Z,1008.43
2019-04-07T01:48:42.721Z,1008.48
2019-04-07T01:49:43.366Z,1008.42
2019-04-07T01:50:42.842Z,1008.42
2019-04-07T01:51:42.688Z,1008.47
2019-04-07T01:52:42.694Z,1008.36
2019-04-07T01:53:42.667Z,1008.39
2019-04-07T01:54:42.657Z,1008.38
2019-04-07T01:55:43.873Z,1008.35
2019-04-07T01:56:53.799Z,1008.32
2019-04-07T01:57:42.701Z,1008.32
2019-04-07T01:58:42.852Z,1008.30
2019-04-07T01:59:42.599Z,1008.31
2019-04-07T02:00:43.021Z,1008.27
2019-04-07T02:01:42.762Z,1008.27
2019-04-07T02:02:42.567Z,1008.25
2019-04-07T02:03:43.021Z,1008.27
2019-04-07T02:04:42.585Z,1008.26
2019-04-07T02:05:42.538Z,1008.21
2019-04-07T02:06:42.566Z,1008.25
2019-04-07T02:07:42.514Z,1008.19
2019-04-07T02:08:42.872Z,1008.14
2019-04-07T02:09:42.491Z,1008.20
2019-04-07T02:10:42.879Z,1008.21
2019-04-07T02:11:42.929Z,1008.21
2019-04-07T02:12:42.459Z,1008.17
2019-04-07T02:13:42.926Z,1008.16
2019-04-07T02:14:42.471Z,1008.17
2019-04-07T02:15:42.425Z,1008.14
2019-04-07T02:16:43.188Z,1008.12
2019-04-07T02:17:42.801Z,1008.15
2019-04-07T02:18:42.389Z,1008.12
2019-04-07T02:19:42.379Z,1008.11
2019-04-07T02:20:42.388Z,1008.10
2019-04-07T02:21:42.830Z,1008.09
2019-04-07T02:22:42.349Z,1008.08
2019-04-07T02:23:42.345Z,1008.05
2019-04-07T02:24:42.327Z,1008.10
2019-04-07T02:25:42.760Z,1008.06
2019-04-07T02:26:42.386Z,1008.01
2019-04-07T02:27:52.635Z,1007.98
2019-04-07T02:28:42.998Z,1007.96
2019-04-07T02:29:42.482Z,1007.92
2019-04-07T02:30:42.267Z,1007.92
2019-04-07T02:31:42.355Z,1007.90
2019-04-07T02:32:42.272Z,1007.88
2019-04-07T02:33:42.470Z,1007.89
2019-04-07T02:34:42.858Z,1007.87
2019-04-07T02:35:43.108Z,1007.82
2019-04-07T02:36:43.113Z,1007.82
2019-04-07T02:37:42.625Z,1007.85
2019-04-07T02:38:42.436Z,1007.82
2019-04-07T02:39:42.387Z,1007.86
2019-04-07T02:40:42.705Z,1007.82
2019-04-07T02:41:42.294Z,1007.79
2019-04-07T02:42:42.661Z,1007.83
2019-04-07T02:43:42.472Z,1007.84
2019-04-07T02:44:42.283Z,1007.83
2019-04-07T02:45:43.106Z,1007.85
2019-04-07T02:46:42.090Z,1007.84
2019-04-07T02:47:42.106Z,1007.80
2019-04-07T02:48:42.688Z,1007.88
2019-04-07T02:49:42.063Z,1007.82
2019-04-07T02:50:42.050Z,1007.83
2019-04-07T02:51:42.153Z,1007.84
2019-04-07T02:52:42.023Z,1007.81
2019-04-07T02:53:42.017Z,1007.77
2019-04-07T02:54:43.183Z,1007.72
2019-04-07T02:55:42.404Z,1007.79
2019-04-07T02:56:42.386Z,1007.77
2019-04-07T02:57:42.232Z,1007.77
2019-04-07T02:58:54.948Z,1007.75
2019-04-07T02:59:43.002Z,1007.72
2019-04-07T03:00:41.982Z,1007.73
2019-04-07T03:01:41.926Z,1007.73
2019-04-07T03:02:41.999Z,1007.68
2019-04-07T03:03:42.751Z,1007.72
2019-04-07T03:04:41.895Z,1007.67
2019-04-07T03:05:42.262Z,1007.60
2019-04-07T03:06:47.494Z,1007.64
2019-04-07T03:07:43.075Z,1007.61
2019-04-07T03:08:41.850Z,1007.60
2019-04-07T03:09:41.985Z,1007.59
2019-04-07T03:10:41.835Z,1007.57
2019-04-07T03:11:42.758Z,1007.54
2019-04-07T03:12:41.828Z,1007.53
2019-04-07T03:13:41.806Z,1007.52
2019-04-07T03:14:41.783Z,1007.53
2019-04-07T03:15:41.778Z,1007.50
2019-04-07T03:16:41.901Z,1007.50
2019-04-07T03:17:41.758Z,1007.49
2019-04-07T03:18:42.498Z,1007.47
2019-04-07T03:19:42.600Z,1007.46
2019-04-07T03:20:41.726Z,1007.45
2019-04-07T03:21:42.500Z,1007.46
2019-04-07T03:22:41.919Z,1007.46
2019-04-07T03:23:41.717Z,1007.50
2019-04-07T03:24:42.359Z,1007.43
2019-04-07T03:25:42.169Z,1007.46
2019-04-07T03:26:42.543Z,1007.39
2019-04-07T03:27:42.270Z,1007.42
2019-04-07T03:28:42.241Z,1007.38
2019-04-07T03:29:53.468Z,1007.34
2019-04-07T03:30:41.952Z,1007.37
2019-04-07T03:31:44.007Z,1007.43
2019-04-07T03:32:45.687Z,1007.37
2019-04-07T03:33:43.999Z,1007.37
2019-04-07T03:34:42.008Z,1007.38
2019-04-07T03:35:44.837Z,1007.41
2019-04-07T03:37:09.206Z,1007.42
2019-04-07T03:37:45.468Z,1007.41
2019-04-07T03:38:41.526Z,1007.39
2019-04-07T03:39:41.517Z,1007.42
2019-04-07T03:40:41.504Z,1007.40
2019-04-07T03:41:41.532Z,1007.35
2019-04-07T03:42:41.725Z,1007.37
2019-04-07T03:43:41.798Z,1007.33
2019-04-07T03:44:41.465Z,1007.31
2019-04-07T03:45:41.530Z,1007.28
2019-04-07T03:46:41.478Z,1007.35
2019-04-07T03:47:41.890Z,1007.30
2019-04-07T03:48:41.688Z,1007.29
2019-04-07T03:49:41.493Z,1007.29
2019-04-07T03:50:41.397Z,1007.27
2019-04-07T03:51:41.723Z,1007.27
2019-04-07T03:52:41.423Z,1007.26
2019-04-07T03:53:42.177Z,1007.22
2019-04-07T03:54:41.359Z,1007.22
2019-04-07T03:55:41.354Z,1007.20
2019-04-07T03:56:41.637Z,1007.21
2019-04-07T03:57:41.385Z,1007.19
2019-04-07T03:58:41.325Z,1007.17
2019-04-07T03:59:41.300Z,1007.14
2019-04-07T04:00:54.959Z,1007.14
2019-04-07T04:01:41.560Z,1007.14
2019-04-07T04:02:41.437Z,1007.15
2019-04-07T04:03:41.256Z,1007.14
2019-04-07T04:04:41.555Z,1007.13
2019-04-07T04:05:41.453Z,1007.13
2019-04-07T04:06:42.024Z,1007.13
2019-04-07T04:07:41.841Z,1007.15
2019-04-07T04:08:41.754Z,1007.12
2019-04-07T04:09:42.728Z,1007.15
2019-04-07T04:10:41.189Z,1007.11
2019-04-07T04:11:41.170Z,1007.05
2019-04-07T04:12:41.727Z,1007.03
2019-04-07T04:13:41.450Z,1007.01
2019-04-07T04:14:41.150Z,1007.03
2019-04-07T04:15:41.519Z,1007.04
2019-04-07T04:16:41.165Z,1007.02
2019-04-07T04:17:41.379Z,1006.97
2019-04-07T04:18:41.113Z,1006.99
2019-04-07T04:19:41.086Z,1006.97
2019-04-07T04:20:41.076Z,1007.00
2019-04-07T04:21:41.063Z,1006.96
2019-04-07T04:22:41.069Z,1006.96
2019-04-07T04:23:42.951Z,1006.93
2019-04-07T04:24:41.038Z,1006.94
2019-04-07T04:25:41.038Z,1006.93
2019-04-07T04:26:41.992Z,1006.89
2019-04-07T04:27:41.878Z,1006.89
2019-04-07T04:28:41.039Z,1006.88
2019-04-07T04:29:41.538Z,1006.84
2019-04-07T04:30:41.889Z,1006.84
2019-04-07T04:31:52.916Z,1006.84
2019-04-07T04:32:41.454Z,1006.83
2019-04-07T04:33:41.155Z,1006.81
2019-04-07T04:34:41.205Z,1006.81
2019-04-07T04:35:41.028Z,1006.78
2019-04-07T04:36:40.911Z,1006.81
2019-04-07T04:37:47.638Z,1006.81
2019-04-07T04:38:41.931Z,1006.85
2019-04-07T04:39:41.128Z,1006.82
2019-04-07T04:40:40.959Z,1006.80
2019-04-07T04:41:40.855Z,1006.82
2019-04-07T04:42:40.961Z,1006.82
2019-04-07T04:43:40.834Z,1006.78
2019-04-07T04:44:40.840Z,1006.80
2019-04-07T04:45:40.813Z,1006.81
2019-04-07T04:46:41.240Z,1006.71
2019-04-07T04:47:40.948Z,1006.73
2019-04-07T04:48:41.063Z,1006.71
2019-04-07T04:49:41.688Z,1006.72
2019-04-07T04:50:41.860Z,1006.71
2019-04-07T04:51:41.035Z,1006.71
2019-04-07T04:52:40.981Z,1006.69
2019-04-07T04:53:40.717Z,1006.69
2019-04-07T04:54:40.919Z,1006.68
2019-04-07T04:55:40.699Z,1006.70
2019-04-07T04:56:41.424Z,1006.68
2019-04-07T04:57:40.709Z,1006.69
2019-04-07T04:58:40.669Z,1006.69
2019-04-07T04:59:40.654Z,1006.66
2019-04-07T05:00:41.502Z,1006.64
2019-04-07T05:01:40.630Z,1006.67
2019-04-07T05:02:51.554Z,1006.65
2019-04-07T05:03:40.706Z,1006.60
2019-04-07T05:04:40.606Z,1006.61
2019-04-07T05:05:41.390Z,1006.61
2019-04-07T05:06:41.314Z,1006.60
2019-04-07T05:07:49.978Z,1006.61
2019-04-07T05:08:41.567Z,1006.61
2019-04-07T05:09:46.647Z,1006.56
2019-04-07T05:10:41.698Z,1006.53
2019-04-07T05:11:40.812Z,1006.53
2019-04-07T05:12:40.519Z,1006.53
2019-04-07T05:13:41.186Z,1006.52
2019-04-07T05:14:41.210Z,1006.51
2019-04-07T05:15:40.507Z,1006.51
2019-04-07T05:16:40.474Z,1006.50
2019-04-07T05:17:40.463Z,1006.44
2019-04-07T05:18:40.453Z,1006.45
2019-04-07T05:19:42.753Z,1006.45
2019-04-07T05:20:40.862Z,1006.45
2019-04-07T05:21:40.497Z,1006.44
2019-04-07T05:22:41.131Z,1006.43
2019-04-07T05:23:40.636Z,1006.41
2019-04-07T05:24:40.996Z,1006.40
2019-04-07T05:25:40.405Z,1006.44
2019-04-07T05:26:40.967Z,1006.40
2019-04-07T05:27:40.396Z,1006.38
2019-04-07T05:28:40.619Z,1006.35
2019-04-07T05:29:40.331Z,1006.37
2019-04-07T05:30:40.330Z,1006.39
2019-04-07T05:31:40.312Z,1006.38
2019-04-07T05:32:40.941Z,1006.39
2019-04-07T05:33:51.034Z,1006.37
2019-04-07T05:34:40.338Z,1006.35
2019-04-07T05:35:40.445Z,1006.40
2019-04-07T05:36:40.810Z,1006.35
2019-04-07T05:37:40.638Z,1006.38
2019-04-07T05:38:40.950Z,1006.36
2019-04-07T05:39:40.389Z,1006.34
2019-04-07T05:40:40.845Z,1006.35
2019-04-07T05:41:40.252Z,1006.30
2019-04-07T05:42:40.201Z,1006.30
2019-04-07T05:43:40.579Z,1006.29
2019-04-07T05:44:40.179Z,1006.32
2019-04-07T05:45:40.161Z,1006.34
2019-04-07T05:46:42.439Z,1006.29
2019-04-07T05:47:43.650Z,1006.29
2019-04-07T05:48:42.002Z,1006.27
2019-04-07T05:49:40.126Z,1006.30
2019-04-07T05:50:40.699Z,1006.27
2019-04-07T05:51:40.267Z,1006.26
2019-04-07T05:52:40.877Z,1006.24
2019-04-07T05:53:42.196Z,1006.30
2019-04-07T05:54:40.417Z,1006.23
2019-04-07T05:55:40.059Z,1006.24
2019-04-07T05:56:40.347Z,1006.25
2019-04-07T05:57:40.033Z,1006.26
2019-04-07T05:58:41.886Z,1006.25
2019-04-07T05:59:42.291Z,1006.24
2019-04-07T06:00:40.492Z,1006.23
2019-04-07T06:01:40.178Z,1006.27
2019-04-07T06:02:40.678Z,1006.20
2019-04-07T06:03:42.845Z,1006.27
2019-04-07T06:04:50.283Z,1006.22
2019-04-07T06:05:40.084Z,1006.22
2019-04-07T06:06:41.793Z,1006.22
2019-04-07T06:07:39.921Z,1006.25
2019-04-07T06:08:41.025Z,1006.23
2019-04-07T06:09:40.419Z,1006.25
2019-04-07T06:10:40.326Z,1006.22
2019-04-07T06:11:40.103Z,1006.18
2019-04-07T06:12:43.279Z,1006.17
2019-04-07T06:13:43.847Z,1006.18
2019-04-07T06:14:40.106Z,1006.17
2019-04-07T06:15:40.335Z,1006.20
2019-04-07T06:16:39.832Z,1006.15
2019-04-07T06:17:40.027Z,1006.16
2019-04-07T06:18:39.804Z,1006.16
2019-04-07T06:19:41.282Z,1006.12
2019-04-07T06:20:39.784Z,1006.09
2019-04-07T06:21:39.972Z,1006.16
2019-04-07T06:22:40.474Z,1006.11
2019-04-07T06:23:39.749Z,1006.12
2019-04-07T06:24:39.829Z,1006.11
2019-04-07T06:25:41.957Z,1006.08
2019-04-07T06:26:42.097Z,1006.12
2019-04-07T06:27:44.820Z,1006.09
2019-04-07T06:28:40.444Z,1006.13
2019-04-07T06:29:39.890Z,1006.08
2019-04-07T06:30:39.674Z,1006.08
2019-04-07T06:31:40.236Z,1006.05
2019-04-07T06:32:39.794Z,1006.07
2019-04-07T06:33:40.374Z,1006.06
2019-04-07T06:34:41.180Z,1006.08
2019-04-07T06:35:54.886Z,1006.08
2019-04-07T06:36:39.727Z,1006.07
2019-04-07T06:37:39.847Z,1006.08
2019-04-07T06:38:43.636Z,1006.05
2019-04-07T06:39:40.725Z,1006.07
2019-04-07T06:40:39.616Z,1006.12
2019-04-07T06:41:39.557Z,1006.09
2019-04-07T06:42:40.476Z,1006.07
2019-04-07T06:43:40.279Z,1006.08
2019-04-07T06:44:40.015Z,1006.06
2019-04-07T06:45:39.970Z,1006.11
2019-04-07T06:46:40.078Z,1006.09
2019-04-07T06:47:39.797Z,1006.06
2019-04-07T06:48:40.520Z,1006.04
2019-04-07T06:49:43.428Z,1006.03
2019-04-07T06:50:49.376Z,1006.02
2019-04-07T06:51:40.453Z,1006.06
2019-04-07T06:52:41.630Z,1006.02
2019-04-07T06:53:39.436Z,1006.01
2019-04-07T06:54:39.871Z,1006.02
2019-04-07T06:55:39.536Z,1006.00
2019-04-07T06:56:40.122Z,1005.97
2019-04-07T06:57:39.393Z,1005.98
2019-04-07T06:58:41.632Z,1005.99
2019-04-07T06:59:39.434Z,1005.99
2019-04-07T07:00:39.724Z,1005.97
2019-04-07T07:01:39.432Z,1006.00
2019-04-07T07:02:39.345Z,1006.00
2019-04-07T07:03:39.323Z,1005.97
2019-04-07T07:04:41.606Z,1006.02
2019-04-07T07:05:41.113Z,1005.96
2019-04-07T07:06:51.451Z,1005.99
2019-04-07T07:07:39.315Z,1005.99
2019-04-07T07:08:45.724Z,1006.02
2019-04-07T07:09:40.265Z,1005.94
2019-04-07T07:10:41.118Z,1006.00
2019-04-07T07:11:42.800Z,1005.97
2019-04-07T07:12:41.084Z,1005.98
2019-04-07T07:13:43.086Z,1005.97
2019-04-07T07:14:43.734Z,1005.96
2019-04-07T07:15:40.216Z,1005.97
2019-04-07T07:16:42.681Z,1006.00
2019-04-07T07:17:39.173Z,1005.99
2019-04-07T07:18:39.341Z,1005.91
2019-04-07T07:19:39.247Z,1005.94
2019-04-07T07:20:39.413Z,1005.95
2019-04-07T07:21:39.606Z,1005.89
2019-04-07T07:22:41.008Z,1005.91
2019-04-07T07:23:39.667Z,1005.95
2019-04-07T07:24:39.305Z,1005.93
2019-04-07T07:25:39.807Z,1005.87
2019-04-07T07:26:39.577Z,1005.88
2019-04-07T07:27:41.549Z,1005.89
2019-04-07T07:28:42.945Z,1005.84
2019-04-07T07:29:40.041Z,1005.85
2019-04-07T07:30:39.034Z,1005.85
2019-04-07T07:31:39.229Z,1005.81
2019-04-07T07:32:39.013Z,1005.84
2019-04-07T07:33:41.795Z,1005.78
2019-04-07T07:34:41.959Z,1005.82
2019-04-07T07:35:38.973Z,1005.79
2019-04-07T07:36:38.965Z,1005.81
2019-04-07T07:37:49.956Z,1005.81
2019-04-07T07:38:39.733Z,1005.80
2019-04-07T07:39:41.956Z,1005.80
2019-04-07T07:40:39.636Z,1005.76
2019-04-07T07:41:38.990Z,1005.81
2019-04-07T07:42:38.901Z,1005.78
2019-04-07T07:43:39.085Z,1005.78
2019-04-07T07:44:39.823Z,1005.84
2019-04-07T07:45:42.849Z,1005.76
2019-04-07T07:46:39.858Z,1005.77
2019-04-07T07:47:38.846Z,1005.77
2019-04-07T07:48:38.961Z,1005.76
2019-04-07T07:49:40.925Z,1005.76
2019-04-07T07:50:40.425Z,1005.76
2019-04-07T07:51:39.821Z,1005.73
2019-04-07T07:52:38.795Z,1005.71
2019-04-07T07:53:39.405Z,1005.72
2019-04-07T07:54:38.776Z,1005.69
2019-04-07T07:55:38.761Z,1005.72
2019-04-07T07:56:42.207Z,1005.71
2019-04-07T07:57:40.462Z,1005.68
2019-04-07T07:58:38.728Z,1005.71
2019-04-07T07:59:39.627Z,1005.69
2019-04-07T08:00:41.546Z,1005.62
2019-04-07T08:01:38.693Z,1005.68
2019-04-07T08:02:38.954Z,1005.66
2019-04-07T08:03:39.303Z,1005.62
2019-04-07T08:04:38.757Z,1005.63
2019-04-07T08:05:38.657Z,1005.63
2019-04-07T08:06:40.944Z,1005.60
2019-04-07T08:07:39.064Z,1005.59
2019-04-07T08:08:48.913Z,1005.54
2019-04-07T08:09:39.303Z,1005.57
2019-04-07T08:10:38.605Z,1005.58
2019-04-07T08:11:38.996Z,1005.57
2019-04-07T08:12:38.930Z,1005.55
2019-04-07T08:13:43.390Z,1005.55
2019-04-07T08:14:40.378Z,1005.55
2019-04-07T08:15:39.317Z,1005.58
2019-04-07T08:16:39.077Z,1005.53
2019-04-07T08:17:38.520Z,1005.56
2019-04-07T08:18:41.921Z,1005.53
2019-04-07T08:19:42.293Z,1005.52
2019-04-07T08:20:38.518Z,1005.56
2019-04-07T08:21:39.125Z,1005.54
2019-04-07T08:22:42.890Z,1005.52
2019-04-07T08:23:43.038Z,1005.55
2019-04-07T08:24:39.488Z,1005.55
2019-04-07T08:25:38.952Z,1005.50
2019-04-07T08:26:38.431Z,1005.48
2019-04-07T08:27:38.744Z,1005.46
2019-04-07T08:28:39.168Z,1005.47
2019-04-07T08:29:39.561Z,1005.48
2019-04-07T08:30:38.404Z,1005.46
2019-04-07T08:31:38.475Z,1005.46
2019-04-07T08:32:38.840Z,1005.43
2019-04-07T08:33:38.605Z,1005.47
2019-04-07T08:34:38.342Z,1005.45
2019-04-07T08:35:39.706Z,1005.47
2019-04-07T08:36:41.956Z,1005.45
2019-04-07T08:37:39.405Z,1005.48
2019-04-07T08:38:38.320Z,1005.40
2019-04-07T08:39:48.604Z,1005.34
2019-04-07T08:40:39.158Z,1005.39
2019-04-07T08:41:40.639Z,1005.34
2019-04-07T08:42:39.136Z,1005.35
2019-04-07T08:43:38.259Z,1005.32
2019-04-07T08:44:38.245Z,1005.33
2019-04-07T08:45:38.227Z,1005.34
2019-04-07T08:46:40.945Z,1005.38
2019-04-07T08:47:38.200Z,1005.33
2019-04-07T08:48:38.805Z,1005.35
2019-04-07T08:49:38.178Z,1005.35
2019-04-07T08:50:38.176Z,1005.33
2019-04-07T08:51:38.160Z,1005.31
2019-04-07T08:52:40.569Z,1005.33
2019-04-07T08:53:38.859Z,1005.31
2019-04-07T08:54:38.863Z,1005.30
2019-04-07T08:55:38.113Z,1005.27
2019-04-07T08:56:38.746Z,1005.29
2019-04-07T08:57:38.100Z,1005.29
2019-04-07T08:58:39.186Z,1005.30
2019-04-07T08:59:41.878Z,1005.29
2019-04-07T09:00:38.361Z,1005.28
2019-04-07T09:01:38.058Z,1005.27
2019-04-07T09:02:38.044Z,1005.27
2019-04-07T09:03:38.742Z,1005.25
2019-04-07T09:04:38.087Z,1005.28
2019-04-07T09:05:38.069Z,1005.25
2019-04-07T09:06:38.580Z,1005.23
2019-04-07T09:07:38.014Z,1005.19
2019-04-07T09:08:39.717Z,1005.21
2019-04-07T09:09:44.997Z,1005.20
2019-04-07T09:11:54.094Z,1005.19
2019-04-07T09:12:51.830Z,1005.18
2019-04-07T09:13:52.553Z,1005.19
2019-04-07T09:14:51.813Z,1005.18
2019-04-07T09:15:52.237Z,1005.19
2019-04-07T09:16:54.269Z,1005.18
2019-04-07T09:17:51.811Z,1005.17
2019-04-07T09:19:00.026Z,1005.16
2019-04-07T09:19:54.717Z,1005.17
2019-04-07T09:20:51.888Z,1005.18
2019-04-07T09:21:52.779Z,1005.16
2019-04-07T09:22:54.705Z,1005.14
2019-04-07T09:23:52.202Z,1005.12
2019-04-07T09:24:52.062Z,1005.16
2019-04-07T09:25:51.698Z,1005.14
2019-04-07T09:26:52.372Z,1005.13
2019-04-07T09:27:52.279Z,1005.11
2019-04-07T09:28:55.434Z,1005.06
2019-04-07T09:29:52.331Z,1005.08
2019-04-07T09:30:51.635Z,1005.11
2019-04-07T09:31:51.855Z,1005.09
2019-04-07T09:32:51.608Z,1005.09
2019-04-07T09:33:51.824Z,1005.08
2019-04-07T09:34:53.990Z,1005.07
2019-04-07T09:35:52.625Z,1005.09
2019-04-07T09:36:51.572Z,1005.08
2019-04-07T09:37:54.106Z,1005.15
2019-04-07T09:38:51.543Z,1005.14
2019-04-07T09:39:58.438Z,1005.08
2019-04-07T09:40:52.742Z,1005.10
2019-04-07T09:41:58.511Z,1005.08
2019-04-07T09:42:51.888Z,1005.08
2019-04-07T09:43:51.819Z,1005.07
2019-04-07T09:44:51.668Z,1005.07
2019-04-07T09:45:51.844Z,1005.06
2019-04-07T09:46:51.551Z,1005.07
2019-04-07T09:47:51.450Z,1005.01
2019-04-07T09:48:52.805Z,1005.05
2019-04-07T09:49:56.145Z,1005.04
2019-04-07T09:50:55.181Z,1005.05
2019-04-07T09:51:51.802Z,1005.07
2019-04-07T09:52:51.429Z,1005.03
2019-04-07T09:53:52.151Z,1005.05
2019-04-07T09:54:52.962Z,1005.02
2019-04-07T09:55:51.605Z,1004.99
2019-04-07T09:56:51.854Z,1005.05
2019-04-07T09:57:51.342Z,1005.02
2019-04-07T09:58:51.499Z,1005.04
2019-04-07T09:59:53.501Z,1005.00
2019-04-07T10:00:55.574Z,1005.02
2019-04-07T10:01:52.675Z,1005.01
2019-04-07T10:02:51.594Z,1005.00
2019-04-07T10:03:51.303Z,1004.97
2019-04-07T10:04:51.265Z,1005.02
2019-04-07T10:05:51.248Z,1004.97
2019-04-07T10:06:51.239Z,1005.01
2019-04-07T10:07:51.830Z,1004.98
2019-04-07T10:08:51.213Z,1005.01
2019-04-07T10:10:03.262Z,1005.00
2019-04-07T10:10:52.612Z,1004.97
2019-04-07T10:11:51.891Z,1004.95
2019-04-07T10:13:02.137Z,1004.93
2019-04-07T10:13:51.231Z,1004.96
2019-04-07T10:14:51.232Z,1004.96
2019-04-07T10:15:51.135Z,1004.93
2019-04-07T10:16:51.741Z,1004.91
2019-04-07T10:17:51.771Z,1004.93
2019-04-07T10:18:51.108Z,1004.93
2019-04-07T10:19:51.095Z,1004.92
2019-04-07T10:20:51.483Z,1004.96
2019-04-07T10:21:51.073Z,1004.93
2019-04-07T10:22:51.567Z,1004.87
2019-04-07T10:23:51.051Z,1004.90
2019-04-07T10:24:51.726Z,1004.88
2019-04-07T10:25:51.763Z,1004.91
2019-04-07T10:26:51.060Z,1004.94
2019-04-07T10:27:51.009Z,1004.89
2019-04-07T10:28:51.748Z,1004.92
2019-04-07T10:29:51.411Z,1004.91
2019-04-07T10:30:51.749Z,1004.87
2019-04-07T10:31:51.831Z,1004.91
2019-04-07T10:32:50.962Z,1004.86
2019-04-07T10:33:51.227Z,1004.91
2019-04-07T10:34:51.033Z,1004.89
2019-04-07T10:35:51.195Z,1004.84
2019-04-07T10:36:50.963Z,1004.82
2019-04-07T10:37:52.208Z,1004.89
2019-04-07T10:38:50.916Z,1004.81
2019-04-07T10:39:50.885Z,1004.87
2019-04-07T10:40:51.213Z,1004.83
2019-04-07T10:41:50.846Z,1004.81
2019-04-07T10:42:51.427Z,1004.83
2019-04-07T10:44:01.688Z,1004.85
2019-04-07T10:44:51.415Z,1004.84
2019-04-07T10:45:50.900Z,1004.84
2019-04-07T10:46:50.791Z,1004.76
2019-04-07T10:47:51.148Z,1004.78
2019-04-07T10:48:51.101Z,1004.72
2019-04-07T10:49:59.292Z,1004.79
2019-04-07T10:50:51.906Z,1004.78
2019-04-07T10:51:51.283Z,1004.72
2019-04-07T10:52:51.425Z,1004.75
2019-04-07T10:53:51.237Z,1004.73
2019-04-07T10:54:50.706Z,1004.75
2019-04-07T10:55:50.969Z,1004.73
2019-04-07T10:56:50.677Z,1004.71
2019-04-07T10:57:50.667Z,1004.67
2019-04-07T10:58:50.657Z,1004.71
2019-04-07T10:59:51.294Z,1004.69
2019-04-07T11:00:50.995Z,1004.70
2019-04-07T11:01:51.324Z,1004.66
2019-04-07T11:02:55.403Z,1004.69
2019-04-07T11:03:53.694Z,1004.66
2019-04-07T11:04:50.882Z,1004.65
2019-04-07T11:05:50.580Z,1004.63
2019-04-07T11:06:50.574Z,1004.61
2019-04-07T11:07:50.555Z,1004.62
2019-04-07T11:08:51.792Z,1004.61
2019-04-07T11:09:50.530Z,1004.61
2019-04-07T11:10:50.805Z,1004.62
2019-04-07T11:11:51.153Z,1004.62
2019-04-07T11:12:51.258Z,1004.57
2019-04-07T11:13:51.638Z,1004.63
2019-04-07T11:15:02.462Z,1004.63
2019-04-07T11:15:50.974Z,1004.57
2019-04-07T11:16:50.458Z,1004.60
2019-04-07T11:17:50.483Z,1004.63
2019-04-07T11:18:50.457Z,1004.60
2019-04-07T11:19:50.423Z,1004.59
2019-04-07T11:20:50.918Z,1004.57
2019-04-07T11:21:50.404Z,1004.53
2019-04-07T11:22:50.389Z,1004.55
2019-04-07T11:23:50.400Z,1004.56
2019-04-07T11:24:50.366Z,1004.54
2019-04-07T11:25:50.358Z,1004.53
2019-04-07T11:26:50.345Z,1004.54
2019-04-07T11:27:50.435Z,1004.53
2019-04-07T11:28:50.326Z,1004.52
2019-04-07T11:29:50.680Z,1004.48
2019-04-07T11:30:50.927Z,1004.51
2019-04-07T11:31:50.428Z,1004.47
2019-04-07T11:32:50.275Z,1004.48
2019-04-07T11:33:50.367Z,1004.42
2019-04-07T11:34:50.519Z,1004.41
2019-04-07T11:35:50.899Z,1004.42
2019-04-07T11:36:50.238Z,1004.41
2019-04-07T11:37:50.219Z,1004.37
2019-04-07T11:38:50.538Z,1004.42
2019-04-07T11:39:50.208Z,1004.34
2019-04-07T11:40:52.143Z,1004.38
2019-04-07T11:41:50.177Z,1004.38
2019-04-07T11:42:50.790Z,1004.37
2019-04-07T11:43:50.159Z,1004.38
2019-04-07T11:44:50.853Z,1004.40
2019-04-07T11:46:03.491Z,1004.40
2019-04-07T11:46:50.857Z,1004.36
2019-04-07T11:47:50.252Z,1004.36
2019-04-07T11:48:50.420Z,1004.37
2019-04-07T11:49:50.609Z,1004.33
2019-04-07T11:50:50.619Z,1004.29
2019-04-07T11:51:50.103Z,1004.30
2019-04-07T11:52:50.515Z,1004.24
2019-04-07T11:53:50.257Z,1004.26
2019-04-07T11:54:50.039Z,1004.26
2019-04-07T11:55:50.027Z,1004.25
2019-04-07T11:56:50.013Z,1004.20
2019-04-07T11:58:03.598Z,1004.19
2019-04-07T11:58:50.996Z,1004.19
2019-04-07T11:59:50.237Z,1004.17
2019-04-07T12:00:51.397Z,1004.15
2019-04-07T12:01:50.865Z,1004.22
2019-04-07T12:02:51.908Z,1004.18
2019-04-07T12:03:52.590Z,1004.14
2019-04-07T12:04:50.079Z,1004.17
2019-04-07T12:05:50.633Z,1004.12
2019-04-07T12:06:49.928Z,1004.13